Terminal Aerodrome Forecast
Issued by NWS Wilmington, NC

Home | Current Version | Previous Version | Text Only | Print | Product List | Glossary On
Versions: 1 2 3 4 5 6 7 8 9 10 11 12 13 14 15 16
815
FTUS42 KILM 051120
TAFMYR
TAF
KMYR 051120Z 0512/0612 28005KT P6SM SCT040 SCT070
      TEMPO 0512/0513 4SM BR SCT003
     FM051300 26010KT P6SM SCT035 BKN060
     FM051800 28012G18KT P6SM VCSH SCT050
      TEMPO 0520/0522 4SM SHRA BKN035
     FM060300 30005KT 6SM -SHRA BKN025=

USA.gov is the U.S. government's official web portal to all federal, state and local government web resources and services.